createdAt,value
2023-02-13T19:50:10.961Z,1031.63
2023-02-13T19:51:10.874Z,1031.64
2023-02-13T19:52:10.818Z,1031.68
2023-02-13T19:53:10.764Z,1031.67
2023-02-13T19:54:10.717Z,1031.72
2023-02-13T19:55:10.669Z,1031.72
2023-02-13T19:56:10.621Z,1031.75
2023-02-13T19:57:10.568Z,1031.78
2023-02-13T19:58:10.582Z,1031.80
2023-02-13T19:59:10.473Z,1031.83
2023-02-13T20:00:10.416Z,1031.82
2023-02-13T20:01:10.371Z,1031.91
2023-02-13T20:02:10.348Z,1031.87
2023-02-13T20:03:10.288Z,1031.85
2023-02-13T20:04:10.219Z,1031.86
2023-02-13T20:05:10.173Z,1031.88
2023-02-13T20:06:10.147Z,1031.89
2023-02-13T20:07:10.077Z,1031.84
2023-02-13T20:08:10.060Z,1031.83
2023-02-13T20:09:09.995Z,1031.84
2023-02-13T20:10:09.932Z,1031.85
2023-02-13T20:11:09.888Z,1031.83
2023-02-13T20:12:09.844Z,1031.82
2023-02-13T20:13:09.789Z,1031.79
2023-02-13T20:14:09.744Z,1031.82
2023-02-13T20:15:09.696Z,1031.83
2023-02-13T20:16:09.738Z,1031.83
2023-02-13T20:17:09.634Z,1031.84
2023-02-13T20:18:09.558Z,1031.85
2023-02-13T20:19:09.543Z,1031.87
2023-02-13T20:20:52.841Z,1031.85
2023-02-13T20:21:52.811Z,1031.81
2023-02-13T20:22:52.750Z,1031.82
2023-02-13T20:24:36.094Z,1031.82
2023-02-13T20:25:36.032Z,1031.81
2023-02-13T20:26:35.993Z,1031.81
2023-02-13T20:28:35.899Z,1031.81
2023-02-13T20:29:37.258Z,1031.77
2023-02-13T20:30:35.935Z,1031.79
2023-02-13T20:31:35.914Z,1031.76
2023-02-13T20:32:35.857Z,1031.72
2023-02-13T20:33:35.653Z,1031.71
2023-02-13T20:34:44.317Z,1031.73
2023-02-13T20:35:35.560Z,1031.69
2023-02-13T20:36:35.517Z,1031.67
2023-02-13T20:37:35.483Z,1031.68
2023-02-13T20:38:35.419Z,1031.69
2023-02-13T20:39:35.366Z,1031.66
2023-02-13T20:40:35.332Z,1031.65
2023-02-13T20:41:35.275Z,1031.73
2023-02-13T20:42:35.233Z,1031.67
2023-02-13T20:43:35.177Z,1031.67
2023-02-13T20:44:35.129Z,1031.72
2023-02-13T20:45:35.121Z,1031.71
2023-02-13T20:46:35.032Z,1031.69
2023-02-13T20:47:34.986Z,1031.69
2023-02-13T20:48:34.988Z,1031.70
2023-02-13T20:49:34.890Z,1031.70
2023-02-13T20:50:34.841Z,1031.67
2023-02-13T20:51:34.793Z,1031.68
2023-02-13T20:52:34.753Z,1031.68
2023-02-13T20:53:34.720Z,1031.68
2023-02-13T20:54:34.649Z,1031.62
2023-02-13T20:55:34.599Z,1031.62
2023-02-13T20:56:34.553Z,1031.68
2023-02-13T20:57:34.509Z,1031.68
2023-02-13T20:58:34.473Z,1031.61
2023-02-13T20:59:34.407Z,1031.60
2023-02-13T21:00:34.404Z,1031.62
2023-02-13T21:01:34.311Z,1031.59
2023-02-13T21:02:34.351Z,1031.57
2023-02-13T21:03:34.213Z,1031.57
2023-02-13T21:04:34.170Z,1031.56
2023-02-13T21:05:34.118Z,1031.57
2023-02-13T21:06:34.074Z,1031.56
2023-02-13T21:07:34.022Z,1031.56
2023-02-13T21:08:33.979Z,1031.57
2023-02-13T21:09:33.945Z,1031.55
2023-02-13T21:10:33.881Z,1031.58
2023-02-13T21:11:33.829Z,1031.57
2023-02-13T21:12:33.788Z,1031.62
2023-02-13T21:13:33.735Z,1031.61
2023-02-13T21:14:33.685Z,1031.62
2023-02-13T21:15:33.637Z,1031.63
2023-02-13T21:16:33.698Z,1031.62
2023-02-13T21:18:33.488Z,1031.62
2023-02-13T21:19:33.462Z,1031.64
2023-02-13T21:20:46.434Z,1031.64
2023-02-13T21:21:33.878Z,1031.65
2023-02-13T21:22:33.301Z,1031.65
2023-02-13T21:23:33.252Z,1031.62
2023-02-13T21:24:33.201Z,1031.66
2023-02-13T21:25:33.177Z,1031.61
2023-02-13T21:27:16.496Z,1031.64
2023-02-13T21:28:16.445Z,1031.60
2023-02-13T21:29:16.390Z,1031.64
2023-02-13T21:30:19.026Z,1031.64
2023-02-13T21:31:16.411Z,1031.62
2023-02-13T21:32:16.327Z,1031.66
2023-02-13T21:33:16.199Z,1031.67
2023-02-13T21:34:16.161Z,1031.68
2023-02-13T21:35:16.110Z,1031.68
2023-02-13T21:36:16.049Z,1031.74
2023-02-13T21:37:16.005Z,1031.72
2023-02-13T21:38:15.961Z,1031.74
2023-02-13T21:39:15.918Z,1031.72
2023-02-13T21:40:15.858Z,1031.70
2023-02-13T21:41:15.844Z,1031.74
2023-02-13T21:42:15.774Z,1031.67
2023-02-13T21:43:15.718Z,1031.69
2023-02-13T21:44:15.694Z,1031.67
2023-02-13T21:45:15.621Z,1031.62
2023-02-13T21:46:15.631Z,1031.62
2023-02-13T21:47:15.601Z,1031.65
2023-02-13T21:48:15.480Z,1031.65
2023-02-13T21:49:15.430Z,1031.62
2023-02-13T21:50:15.380Z,1031.67
2023-02-13T21:51:15.336Z,1031.61
2023-02-13T21:52:15.282Z,1031.64
2023-02-13T21:53:15.236Z,1031.65
2023-02-13T21:54:15.184Z,1031.62
2023-02-13T21:55:15.148Z,1031.60
2023-02-13T21:56:15.088Z,1031.59
2023-02-13T21:57:15.061Z,1031.58
2023-02-13T21:58:14.990Z,1031.62
2023-02-13T21:59:14.943Z,1031.59
2023-02-13T22:00:14.898Z,1031.58
2023-02-13T22:01:25.400Z,1031.58
2023-02-13T22:02:14.971Z,1031.59
2023-02-13T22:03:14.749Z,1031.58
2023-02-13T22:04:14.704Z,1031.56
2023-02-13T22:05:14.651Z,1031.56
2023-02-13T22:06:14.605Z,1031.52
2023-02-13T22:07:14.602Z,1031.55
2023-02-13T22:08:14.501Z,1031.54
2023-02-13T22:09:14.464Z,1031.53
2023-02-13T22:10:14.409Z,1031.53
2023-02-13T22:11:14.362Z,1031.56
2023-02-13T22:12:14.307Z,1031.58
2023-02-13T22:13:14.283Z,1031.57
2023-02-13T22:14:14.212Z,1031.57
2023-02-13T22:15:14.164Z,1031.51
2023-02-13T22:16:14.206Z,1031.56
2023-02-13T22:17:14.068Z,1031.57
2023-02-13T22:18:14.013Z,1031.52
2023-02-13T22:19:13.970Z,1031.58
2023-02-13T22:20:13.917Z,1031.53
2023-02-13T22:21:13.868Z,1031.54
2023-02-13T22:22:13.877Z,1031.56
2023-02-13T22:23:13.825Z,1031.53
2023-02-13T22:24:13.733Z,1031.52
2023-02-13T22:25:13.679Z,1031.51
2023-02-13T22:26:13.623Z,1031.48
2023-02-13T22:27:13.581Z,1031.50
